Time;durP1;ratioP1;P1;durP2;ratioP2;P2;SDS_P1;SDS_P2;PMS_P1;PMS_P2;Temp;Humidity;BMP_temperature;BMP_pressure;BME280_temperature;BME280_humidity;BME280_pressure;Samples;Min_cycle;Max_cycle;Signal;HPM_P1;HPM_P2
2022/10/04 00:02:22;;;;;;;13.00;3.70;;;10.30;99.90;;;;;;5057372;28;20027;-69
2022/10/04 00:05:02;;;;;;;9.73;3.53;;;10.30;99.90;;;;;;5056495;28;20032;-69
2022/10/04 00:07:33;;;;;;;10.27;4.45;;;10.30;99.90;;;;;;5056104;28;20029;-69
2022/10/04 00:10:21;;;;;;;9.40;3.65;;;10.30;99.90;;;;;;5055636;28;20059;-69
2022/10/04 00:12:57;;;;;;;15.40;4.18;;;10.30;99.90;;;;;;5054669;28;20036;-69
2022/10/04 00:15:29;;;;;;;12.70;3.83;;;10.30;99.90;;;;;;5055960;28;20027;-69
2022/10/04 00:18:10;;;;;;;16.77;4.50;;;10.30;99.90;;;;;;5055906;28;20523;-69
2022/10/04 00:20:49;;;;;;;18.67;3.78;;;10.30;99.90;;;;;;5055013;28;20032;-69
2022/10/04 00:23:23;;;;;;;14.93;3.80;;;10.30;99.90;;;;;;5055470;28;20025;-69
2022/10/04 00:25:50;;;;;;;6.68;3.03;;;10.30;99.90;;;;;;5056005;28;20017;-69
2022/10/04 00:28:19;;;;;;;14.27;3.53;;;10.30;99.90;;;;;;5055469;28;20025;-69
2022/10/04 00:31:05;;;;;;;13.63;4.47;;;10.30;99.90;;;;;;5055662;28;20032;-69
2022/10/04 00:33:36;;;;;;;10.45;3.20;;;10.30;99.90;;;;;;5055614;28;20053;-69
2022/10/04 00:36:25;;;;;;;10.77;3.25;;;10.30;99.90;;;;;;5054816;28;20020;-69
2022/10/04 00:39:03;;;;;;;7.32;2.55;;;10.30;99.90;;;;;;5054991;28;20033;-69
2022/10/04 00:41:39;;;;;;;7.10;2.75;;;10.30;99.90;;;;;;5055089;28;20025;-69
2022/10/04 00:44:14;;;;;;;8.13;3.38;;;10.20;99.90;;;;;;5055647;28;20060;-69
2022/10/04 00:46:40;;;;;;;41.15;3.50;;;10.10;99.90;;;;;;5055316;28;20028;-69
2022/10/04 00:49:09;;;;;;;3.03;1.63;;;10.10;99.90;;;;;;5054414;28;20033;-69
2022/10/04 00:51:47;;;;;;;5.78;2.83;;;10.10;99.90;;;;;;5055232;28;20503;-69
2022/10/04 00:54:40;;;;;;;3.90;2.40;;;10.00;99.90;;;;;;5037064;28;20480;-69
2022/10/04 00:57:11;;;;;;;4.18;2.67;;;10.00;99.90;;;;;;5054944;28;20396;-69
2022/10/04 01:00:10;;;;;;;4.05;2.15;;;10.00;99.90;;;;;;5054729;28;20021;-69
2022/10/04 01:02:44;;;;;;;10.30;3.25;;;9.90;99.90;;;;;;5039163;28;20033;-69
2022/10/04 01:05:18;;;;;;;5.90;2.65;;;9.90;99.90;;;;;;5054852;28;20074;-69
2022/10/04 01:07:48;;;;;;;2.92;2.72;;;9.90;99.90;;;;;;5055274;28;20021;-69
2022/10/04 01:10:21;;;;;;;2.63;2.10;;;10.00;99.90;;;;;;5054519;28;20036;-69
2022/10/04 01:13:05;;;;;;;2.15;1.95;;;10.00;99.90;;;;;;5054148;28;20442;-69
2022/10/04 01:15:49;;;;;;;5.00;2.58;;;10.10;99.90;;;;;;5054472;28;20025;-69
2022/10/04 01:18:27;;;;;;;;;;;10.10;99.90;;;;;;5054868;28;20029;-69
2022/10/04 01:20:58;;;;;;;2.75;2.30;;;10.20;99.90;;;;;;5054719;28;19915;-69
2022/10/04 01:23:32;;;;;;;2.38;2.17;;;10.20;99.90;;;;;;5054006;28;20100;-69
2022/10/04 01:25:58;;;;;;;3.60;2.47;;;10.20;99.90;;;;;;5054324;28;20032;-69
2022/10/04 01:28:25;;;;;;;2.55;2.35;;;10.20;99.90;;;;;;5054228;28;20053;-69
2022/10/04 01:30:51;;;;;;;2.80;2.60;;;10.20;99.90;;;;;;5054213;28;20481;-69
2022/10/04 01:33:18;;;;;;;2.60;2.40;;;10.20;99.90;;;;;;5053818;28;20025;-69
2022/10/04 01:35:43;;;;;;;9.85;3.30;;;10.20;99.90;;;;;;5054417;28;20053;-69
2022/10/04 01:38:10;;;;;;;8.50;3.97;;;10.30;99.90;;;;;;5054046;28;20434;-69
2022/10/04 01:40:46;;;;;;;5.03;3.20;;;10.30;99.90;;;;;;5054459;28;20350;-69
2022/10/04 01:43:17;;;;;;;4.40;3.17;;;10.30;99.90;;;;;;5053999;28;20017;-69
2022/10/04 01:46:02;;;;;;;5.43;3.83;;;10.30;99.90;;;;;;5054288;28;20074;-69
2022/10/04 01:48:34;;;;;;;4.45;2.90;;;10.30;99.90;;;;;;5053452;28;20021;-69
2022/10/04 01:51:15;;;;;;;4.85;3.28;;;10.30;99.90;;;;;;5054166;28;20079;-69
2022/10/04 01:53:54;;;;;;;7.25;4.07;;;10.30;99.90;;;;;;5053862;28;20044;-69
2022/10/04 01:56:26;;;;;;;8.77;4.13;;;10.30;99.90;;;;;;5053777;28;20492;-69
2022/10/04 01:58:58;;;;;;;4.07;3.47;;;10.40;99.90;;;;;;5053681;28;20060;-69
2022/10/04 02:01:43;;;;;;;3.45;3.15;;;10.40;99.90;;;;;;5053198;28;20039;-69
2022/10/04 02:04:19;;;;;;;4.28;3.20;;;10.40;99.90;;;;;;5053663;28;20021;-69
2022/10/04 02:06:52;;;;;;;4.25;2.95;;;10.30;99.90;;;;;;5053918;28;20071;-69
2022/10/04 02:09:28;;;;;;;11.17;3.97;;;10.20;99.90;;;;;;5053616;28;20025;-69
2022/10/04 02:11:57;;;;;;;10.48;4.43;;;10.20;99.90;;;;;;5053793;28;20252;-69
2022/10/04 02:14:31;;;;;;;4.93;4.30;;;10.20;99.90;;;;;;5052373;28;20032;-69
2022/10/04 02:17:38;;;;;;;12.98;5.15;;;10.30;99.90;;;;;;5048213;28;20016;-69
2022/10/04 02:20:24;;;;;;;9.65;5.72;;;10.30;99.90;;;;;;5073208;28;20032;-69
2022/10/04 02:22:54;;;;;;;12.40;5.88;;;10.40;99.90;;;;;;5073699;28;20021;-69
2022/10/04 02:25:20;;;;;;;9.98;6.55;;;10.40;99.90;;;;;;5073342;28;20025;-69
2022/10/04 02:27:46;;;;;;;9.90;5.25;;;10.40;99.90;;;;;;5073237;28;20027;-69
2022/10/04 02:30:13;;;;;;;12.40;5.25;;;10.40;99.90;;;;;;5074587;28;20535;-69
2022/10/04 02:32:58;;;;;;;14.20;5.72;;;10.40;99.90;;;;;;5074032;28;20092;-69
2022/10/04 02:35:34;;;;;;;8.80;4.18;;;10.40;99.90;;;;;;5073533;28;20021;-69
2022/10/04 02:38:12;;;;;;;17.63;5.95;;;10.50;99.90;;;;;;5073456;28;20021;-69
2022/10/04 02:40:48;;;;;;;18.63;5.25;;;10.50;99.90;;;;;;5073233;28;20035;-69
2022/10/04 02:43:26;;;;;;;10.38;4.65;;;10.60;99.90;;;;;;5072916;28;20365;-69
2022/10/04 02:46:06;;;;;;;17.65;4.95;;;10.60;99.90;;;;;;5073356;28;20468;-69
2022/10/04 02:48:37;;;;;;;12.77;4.57;;;10.60;99.90;;;;;;5073452;28;20049;-69
2022/10/04 02:51:52;;;;;;;18.17;4.78;;;10.70;99.90;;;;;;5073141;28;20392;-69
2022/10/04 02:54:17;;;;;;;17.42;6.22;;;10.70;99.90;;;;;;5051394;28;20079;-69
2022/10/04 02:56:43;;;;;;;13.65;4.28;;;10.80;99.90;;;;;;5073341;28;20048;-69
2022/10/04 02:59:15;;;;;;;10.30;4.50;;;10.90;99.90;;;;;;5073021;28;20032;-69
2022/10/04 03:01:59;;;;;;;19.02;4.53;;;10.80;99.90;;;;;;5072985;28;20020;-69
2022/10/04 03:04:27;;;;;;;32.45;4.85;;;10.80;99.90;;;;;;5073064;28;20029;-69
2022/10/04 03:06:54;;;;;;;18.10;4.18;;;10.80;99.90;;;;;;5072833;28;20035;-69
2022/10/04 03:09:23;;;;;;;31.40;6.15;;;10.80;99.90;;;;;;5073214;28;20037;-70
2022/10/04 03:11:50;;;;;;;17.95;4.60;;;10.90;99.90;;;;;;5073190;28;20488;-70
2022/10/04 03:14:24;;;;;;;12.40;3.72;;;10.90;99.90;;;;;;5055017;28;20078;-70
2022/10/04 03:16:52;;;;;;;11.60;4.32;;;11.00;99.90;;;;;;5072598;28;20028;-70
2022/10/04 03:19:20;;;;;;;25.33;3.95;;;11.00;99.90;;;;;;5072798;28;20031;-70
2022/10/04 03:21:50;;;;;;;18.52;4.43;;;11.00;99.90;;;;;;5073068;28;20033;-70
2022/10/04 03:24:22;;;;;;;18.77;4.40;;;11.00;99.90;;;;;;5072892;28;20380;-70
2022/10/04 03:26:54;;;;;;;14.38;4.13;;;11.00;99.90;;;;;;5072545;28;20025;-70
2022/10/04 03:29:22;;;;;;;13.02;4.10;;;11.00;99.90;;;;;;5072832;28;20020;-70
2022/10/04 03:31:50;;;;;;;19.48;4.25;;;11.00;99.90;;;;;;5072802;28;20430;-70
2022/10/04 03:34:32;;;;;;;13.98;3.95;;;11.10;99.90;;;;;;5072765;28;20025;-70
2022/10/04 03:36:59;;;;;;;18.95;4.68;;;11.10;99.90;;;;;;5072182;28;20024;-70
2022/10/04 03:39:31;;;;;;;13.65;5.22;;;11.10;99.90;;;;;;5073865;28;20033;-70
2022/10/04 03:41:58;;;;;;;18.15;4.93;;;11.00;99.90;;;;;;5076399;28;20021;-70
2022/10/04 03:44:24;;;;;;;18.60;3.92;;;11.00;99.90;;;;;;5076823;28;20028;-70
2022/10/04 03:46:49;;;;;;;20.65;4.55;;;11.10;99.90;;;;;;5073431;28;20028;-70
2022/10/04 03:49:22;;;;;;;13.80;3.30;;;11.10;99.90;;;;;;5063103;28;20396;-70
2022/10/04 03:51:49;;;;;;;27.92;4.88;;;11.10;99.90;;;;;;5068173;28;20025;-70
2022/10/04 03:54:20;;;;;;;15.15;4.55;;;11.20;99.90;;;;;;5056368;28;20481;-70
2022/10/04 03:56:46;;;;;;;18.65;5.00;;;11.20;99.90;;;;;;5056244;28;20536;-70
2022/10/04 03:59:16;;;;;;;22.83;4.60;;;11.20;99.90;;;;;;5056032;28;20025;-70
2022/10/04 04:01:58;;;;;;;8.98;3.80;;;11.20;99.90;;;;;;5055609;28;20389;-70
2022/10/04 04:04:52;;;;;;;23.70;5.32;;;11.20;99.90;;;;;;5055925;28;20023;-70
2022/10/04 04:07:21;;;;;;;;;;;11.30;99.90;;;;;;5056863;28;20484;-70
2022/10/04 04:10:23;;;;;;;21.30;5.18;;;11.30;99.90;;;;;;5055579;28;19920;-70
2022/10/04 04:13:10;;;;;;;28.42;4.55;;;11.30;99.90;;;;;;5016617;28;20061;-70
2022/10/04 04:15:37;;;;;;;20.95;3.92;;;11.30;99.90;;;;;;5063078;28;20426;-70
2022/10/04 04:18:06;;;;;;;16.55;4.53;;;11.30;99.90;;;;;;5075591;28;20017;-70
2022/10/04 04:20:35;;;;;;;15.98;4.72;;;11.30;99.90;;;;;;5076085;28;20032;-70
2022/10/04 04:23:17;;;;;;;21.75;4.47;;;11.40;99.90;;;;;;5063245;28;20068;-70
2022/10/04 04:25:47;;;;;;;20.90;5.65;;;11.40;99.90;;;;;;5055611;28;20064;-70
2022/10/04 04:28:40;;;;;;;21.02;4.75;;;11.40;99.90;;;;;;5054998;28;20074;-70
2022/10/04 04:31:17;;;;;;;16.30;4.85;;;11.40;99.90;;;;;;5055411;28;20507;-70
2022/10/04 04:33:56;;;;;;;25.73;4.93;;;11.40;99.90;;;;;;5055451;28;20389;-70
2022/10/04 04:36:22;;;;;;;31.10;5.63;;;11.30;99.90;;;;;;5055315;28;20480;-70
2022/10/04 04:41:36;;;;;;;20.00;5.40;;;11.40;99.90;;;;;;5055353;28;20040;-70
2022/10/04 04:44:03;;;;;;;30.52;5.63;;;11.40;99.90;;;;;;5059743;28;20023;-70
2022/10/04 04:46:30;;;;;;;24.77;5.18;;;11.40;99.90;;;;;;5075414;28;20044;-70
2022/10/04 04:49:01;;;;;;;24.30;5.65;;;11.40;99.90;;;;;;5074995;28;20036;-70
2022/10/04 04:51:28;;;;;;;21.20;4.75;;;11.30;99.90;;;;;;5074433;28;20017;-70
2022/10/04 04:53:54;;;;;;;28.10;6.68;;;11.30;99.90;;;;;;5075009;28;20066;-70
2022/10/04 04:56:24;;;;;;;29.95;5.60;;;11.30;99.90;;;;;;5075771;28;20102;-70
2022/10/04 04:58:52;;;;;;;24.98;5.63;;;11.30;99.90;;;;;;5075338;28;20025;-71
2022/10/04 05:01:27;;;;;;;27.75;6.05;;;11.20;99.90;;;;;;5058938;28;20064;-70
2022/10/04 05:04:02;;;;;;;27.02;5.57;;;11.20;99.90;;;;;;5054828;28;20021;-71
2022/10/04 05:06:29;;;;;;;33.22;6.03;;;11.20;99.90;;;;;;5054370;28;20044;-70
2022/10/04 05:08:55;;;;;;;32.40;6.78;;;11.20;99.90;;;;;;5054749;28;20037;-70
2022/10/04 05:11:23;;;;;;;26.70;6.57;;;11.20;99.90;;;;;;5054646;28;20032;-70
2022/10/04 05:14:04;;;;;;;17.23;5.07;;;11.10;99.90;;;;;;5054661;28;20025;-70
2022/10/04 05:16:37;;;;;;;24.42;6.45;;;11.10;99.90;;;;;;5054696;28;20032;-70
2022/10/04 05:19:12;;;;;;;31.90;5.72;;;11.10;99.90;;;;;;5054261;28;20384;-70
2022/10/04 05:21:43;;;;;;;18.48;5.47;;;11.10;99.90;;;;;;5054696;28;20025;-70
2022/10/04 05:24:16;;;;;;;30.75;6.65;;;11.10;99.90;;;;;;5054411;28;20091;-70
2022/10/04 05:26:42;;;;;;;32.10;6.32;;;11.20;99.90;;;;;;5054682;28;20078;-70
2022/10/04 05:29:14;;;;;;;34.47;7.70;;;11.20;99.90;;;;;;5053889;28;20108;-70
2022/10/04 05:31:53;;;;;;;34.28;6.65;;;11.20;99.90;;;;;;5054295;28;20074;-70
2022/10/04 05:34:26;;;;;;;43.65;7.50;;;11.20;99.90;;;;;;5054184;28;20032;-70
2022/10/04 05:37:06;;;;;;;41.47;7.38;;;11.30;99.90;;;;;;5054418;28;20021;-70
2022/10/04 05:39:40;;;;;;;24.73;7.00;;;11.30;99.90;;;;;;5054831;28;20155;-70
2022/10/04 05:42:23;;;;;;;49.63;7.57;;;11.40;99.90;;;;;;5073556;28;20104;-70
2022/10/04 05:44:53;;;;;;;22.27;5.90;;;11.40;99.90;;;;;;5074221;28;20087;-70
2022/10/04 05:47:22;;;;;;;55.33;7.78;;;11.50;99.90;;;;;;5074249;28;20024;-70
2022/10/04 05:49:51;;;;;;;42.38;7.57;;;11.50;99.90;;;;;;5073830;28;20465;-70
2022/10/04 05:52:32;;;;;;;37.85;6.57;;;11.60;99.90;;;;;;5058361;28;20025;-70
2022/10/04 05:55:27;;;;;;;37.20;6.65;;;11.60;99.90;;;;;;5054220;28;20017;-70
2022/10/04 05:58:04;;;;;;;32.00;7.18;;;11.70;99.90;;;;;;5053676;28;20020;-71
2022/10/04 06:00:43;;;;;;;43.25;8.43;;;11.70;99.90;;;;;;5053679;28;20538;-70
2022/10/04 06:03:17;;;;;;;43.75;8.00;;;11.70;99.90;;;;;;5052630;28;20021;-70
2022/10/04 06:05:50;;;;;;;64.60;9.35;;;11.80;99.90;;;;;;5054018;28;20528;-70
2022/10/04 06:08:24;;;;;;;36.85;8.95;;;11.80;99.90;;;;;;5053445;28;20113;-70
2022/10/04 06:11:03;;;;;;;28.52;7.00;;;11.80;99.90;;;;;;5053118;28;20036;-70
2022/10/04 06:13:40;;;;;;;49.33;10.60;;;11.80;99.90;;;;;;5053864;28;20031;-70
2022/10/04 06:16:31;;;;;;;50.97;9.45;;;11.80;99.90;;;;;;5053302;28;20083;-70
2022/10/04 06:19:15;;;;;;;42.63;7.93;;;11.80;99.90;;;;;;5052899;28;20029;-70
2022/10/04 06:21:55;;;;;;;32.42;8.40;;;11.80;99.90;;;;;;5052313;28;20117;-70
2022/10/04 06:24:27;;;;;;;38.85;7.07;;;11.90;99.90;;;;;;5053635;28;20163;-70
2022/10/04 06:27:01;;;;;;;50.92;11.40;;;11.90;99.90;;;;;;5053113;28;20029;-70
2022/10/04 06:29:32;;;;;;;;;;;11.90;99.90;;;;;;5053853;28;20040;-70
2022/10/04 06:32:09;;;;;;;27.63;7.10;;;11.90;99.90;;;;;;5053908;28;19905;-70
2022/10/04 06:34:57;;;;;;;46.45;8.77;;;11.90;99.90;;;;;;5053332;28;20108;-70
2022/10/04 06:37:26;;;;;;;31.92;7.88;;;12.00;99.90;;;;;;5052738;28;20029;-70
2022/10/04 06:40:11;;;;;;;36.10;7.65;;;12.00;99.90;;;;;;5053454;28;20110;-70
2022/10/04 06:42:47;;;;;;;34.47;7.15;;;12.00;99.90;;;;;;5035327;28;20021;-70
2022/10/04 06:45:41;;;;;;;43.13;7.57;;;12.00;99.90;;;;;;5053478;28;20122;-70
2022/10/04 06:48:25;;;;;;;41.70;10.52;;;12.00;99.90;;;;;;5052895;28;20036;-70
2022/10/04 06:51:35;;;;;;;39.83;9.13;;;12.10;99.90;;;;;;5053507;28;20029;-70
2022/10/04 06:54:02;;;;;;;20.95;6.63;;;12.10;99.90;;;;;;5053716;28;20066;-70
2022/10/04 06:56:47;;;;;;;50.70;9.48;;;12.10;99.90;;;;;;5053219;28;20100;-70
2022/10/04 06:59:51;;;;;;;50.38;9.95;;;12.10;99.90;;;;;;5052620;28;20037;-70
2022/10/04 07:02:30;;;;;;;53.67;10.10;;;12.20;99.90;;;;;;5053179;28;20570;-70
2022/10/04 07:05:17;;;;;;;43.58;10.02;;;12.20;99.90;;;;;;5053843;28;20373;-70
2022/10/04 07:07:47;;;;;;;44.55;8.75;;;12.20;99.90;;;;;;5053120;28;20059;-70
2022/10/04 07:10:25;;;;;;;44.33;9.70;;;12.30;99.90;;;;;;5052850;28;20041;-70
2022/10/04 07:13:03;;;;;;;54.88;10.02;;;12.30;99.90;;;;;;5052947;28;20099;-70
2022/10/04 07:15:35;;;;;;;33.20;8.75;;;12.40;99.90;;;;;;5057086;28;20096;-70
2022/10/04 07:18:07;;;;;;;39.67;9.23;;;12.40;99.90;;;;;;5056900;28;20388;-70
2022/10/04 07:20:35;;;;;;;49.05;9.65;;;12.50;99.90;;;;;;5056978;28;20094;-70
2022/10/04 07:23:07;;;;;;;42.47;9.98;;;12.50;99.90;;;;;;5057485;28;20377;-70
2022/10/04 07:25:44;;;;;;;50.65;10.13;;;12.50;99.90;;;;;;5056709;28;20032;-70
2022/10/04 07:31:13;;;;;;;49.60;9.57;;;12.60;99.90;;;;;;5056887;28;20035;-70
2022/10/04 07:33:48;;;;;;;60.20;10.90;;;12.60;99.90;;;;;;5056969;28;20025;-70
2022/10/04 07:36:46;;;;;;;54.35;9.63;;;12.60;99.90;;;;;;5056598;28;20033;-70
2022/10/04 07:39:20;;;;;;;38.38;9.13;;;12.60;99.90;;;;;;5065166;28;20058;-70
2022/10/04 07:41:55;;;;;;;43.38;10.25;;;12.70;99.90;;;;;;5076394;28;20063;-70
2022/10/04 07:44:33;;;;;;;47.58;9.43;;;12.70;99.90;;;;;;5076683;28;20099;-70
2022/10/04 07:47:21;;;;;;;51.03;10.27;;;12.80;99.90;;;;;;5076329;28;20040;-70
2022/10/04 07:49:49;;;;;;;44.70;10.43;;;12.70;99.90;;;;;;5076377;28;20025;-70
2022/10/04 07:52:53;;;;;;;32.65;10.52;;;12.80;99.90;;;;;;5072093;28;20018;-70
2022/10/04 07:55:24;;;;;;;55.10;9.77;;;12.80;99.90;;;;;;5056061;28;20017;-70
2022/10/04 07:58:14;;;;;;;45.10;7.53;;;12.90;99.90;;;;;;5038005;28;20024;-70
2022/10/04 08:01:00;;;;;;;35.88;9.32;;;12.90;99.90;;;;;;5055729;28;20017;-70
2022/10/04 08:03:50;;;;;;;46.78;9.35;;;13.00;99.90;;;;;;5056134;28;20013;-70
2022/10/04 08:06:36;;;;;;;40.63;9.05;;;13.00;99.90;;;;;;5056414;28;20492;-70
2022/10/04 08:09:27;;;;;;;61.28;11.57;;;13.00;99.90;;;;;;5055293;28;20025;-70
2022/10/04 08:12:46;;;;;;;43.85;9.27;;;13.10;99.90;;;;;;5056064;28;20029;-70
2022/10/04 08:15:34;;;;;;;52.85;9.98;;;13.00;99.90;;;;;;4974798;28;20035;-70
2022/10/04 08:18:26;;;;;;;38.30;9.32;;;13.00;99.90;;;;;;5055159;28;20021;-70
2022/10/04 08:21:05;;;;;;;34.67;8.30;;;13.00;99.90;;;;;;5055828;28;20074;-70
2022/10/04 08:23:50;;;;;;;48.40;10.00;;;13.00;99.90;;;;;;5055589;28;20070;-70
2022/10/04 08:26:47;;;;;;;55.70;11.15;;;13.00;99.90;;;;;;5055253;28;20434;-70
2022/10/04 08:29:42;;;;;;;50.58;11.30;;;13.00;99.90;;;;;;5055514;28;20061;-70
2022/10/04 08:32:19;;;;;;;38.58;10.65;;;13.00;99.90;;;;;;5055211;28;20472;-70
2022/10/04 08:35:07;;;;;;;58.10;12.25;;;13.00;99.90;;;;;;5055684;28;20040;-70
2022/10/04 08:37:48;;;;;;;33.70;10.10;;;13.10;99.90;;;;;;5055351;28;20032;-70
2022/10/04 08:40:50;;;;;;;36.60;9.30;;;13.10;99.90;;;;;;5056260;28;20017;-70
2022/10/04 08:43:24;;;;;;;48.30;10.88;;;13.30;99.90;;;;;;5030589;28;20068;-70
2022/10/04 08:46:11;;;;;;;43.15;10.07;;;13.60;99.90;;;;;;5054469;28;20021;-70
2022/10/04 08:48:57;;;;;;;45.00;9.02;;;13.90;99.90;;;;;;5054965;28;20488;-70
2022/10/04 08:52:00;;;;;;;37.33;9.27;;;14.10;99.90;;;;;;5055619;28;20029;-70
2022/10/04 08:54:56;;;;;;;33.75;8.52;;;14.20;99.90;;;;;;5055162;28;20052;-70
2022/10/04 08:57:53;;;;;;;32.97;7.70;;;14.40;99.90;;;;;;5054421;28;20025;-70
2022/10/04 09:00:37;;;;;;;29.40;7.50;;;14.70;99.90;;;;;;5012276;28;20037;-70
2022/10/04 09:03:27;;;;;;;28.83;6.82;;;14.90;99.90;;;;;;5055005;28;20021;-70
2022/10/04 09:06:12;;;;;;;44.97;8.18;;;15.10;99.90;;;;;;5055038;28;20039;-70
2022/10/04 09:09:22;;;;;;;26.77;6.25;;;15.40;99.90;;;;;;5077582;22;20494;-67
2022/10/04 09:12:06;;;;;;;33.03;6.93;;;15.60;99.90;;;;;;4983737;28;20070;-66
2022/10/04 09:15:00;;;;;;;31.77;5.82;;;15.80;99.90;;;;;;4995631;28;20153;-66
2022/10/04 09:17:41;;;;;;;26.77;4.70;;;16.00;99.90;;;;;;4995575;28;20046;-66
2022/10/04 09:20:32;;;;;;;19.42;5.88;;;16.20;99.90;;;;;;4995429;28;20031;-67
2022/10/04 09:23:16;;;;;;;27.50;5.38;;;16.30;99.90;;;;;;4994717;28;20105;-67
2022/10/04 09:25:59;;;;;;;32.33;5.57;;;16.40;99.90;;;;;;5012657;28;20030;-67
2022/10/04 09:28:47;;;;;;;28.50;5.85;;;16.40;99.90;;;;;;5014732;28;20060;-66
2022/10/04 09:31:41;;;;;;;35.35;5.72;;;16.40;99.90;;;;;;5015166;28;20034;-66
2022/10/04 09:34:44;;;;;;;36.05;7.50;;;16.30;99.90;;;;;;5014811;28;20115;-67
2022/10/04 09:37:27;;;;;;;23.58;4.78;;;16.30;99.90;;;;;;5013374;28;20088;-67
2022/10/04 09:40:11;;;;;;;20.15;4.97;;;16.50;99.90;;;;;;5014922;28;20033;-67
2022/10/04 09:42:55;;;;;;;20.80;5.00;;;16.50;99.90;;;;;;5013801;28;20030;-67
2022/10/04 09:45:35;;;;;;;22.10;5.63;;;16.50;99.90;;;;;;5014448;28;20048;-66
2022/10/04 09:48:28;;;;;;;30.10;5.55;;;16.50;99.90;;;;;;5014428;28;20013;-67
2022/10/04 09:51:07;;;;;;;27.27;5.87;;;16.60;99.90;;;;;;5014538;28;20113;-67
2022/10/04 09:54:00;;;;;;;17.95;4.60;;;16.70;99.90;;;;;;5014219;28;20493;-67
2022/10/04 09:56:50;;;;;;;23.20;5.40;;;16.90;99.90;;;;;;5013929;28;20160;-66
2022/10/04 09:59:31;;;;;;;27.98;5.88;;;16.90;99.90;;;;;;5014296;28;20469;-67
2022/10/04 10:01:59;;;;;;;27.60;4.80;;;16.80;99.90;;;;;;5014098;28;20113;-67
2022/10/04 10:04:43;;;;;;;18.77;4.93;;;16.70;99.90;;;;;;5014293;28;20025;-67
2022/10/04 10:07:24;;;;;;;19.15;5.38;;;17.00;99.90;;;;;;5013641;28;20029;-67
2022/10/04 10:13:38;;;;;;;26.10;6.13;;;17.50;99.90;;;;;;5013974;28;20057;-66
2022/10/04 10:16:24;;;;;;;22.98;6.05;;;17.40;99.90;;;;;;5013334;28;20033;-66
2022/10/04 10:19:11;;;;;;;30.65;6.57;;;17.20;99.90;;;;;;5014218;28;20484;-67
2022/10/04 10:21:56;;;;;;;26.17;7.05;;;17.10;99.90;;;;;;5014167;28;20136;-67
2022/10/04 10:24:57;;;;;;;25.55;7.47;;;17.10;99.90;;;;;;5014029;28;20117;-66
2022/10/04 10:27:59;;;;;;;23.75;6.38;;;16.90;99.90;;;;;;5013330;28;20014;-67
2022/10/04 10:30:36;;;;;;;29.35;5.68;;;16.70;99.90;;;;;;5013643;28;20029;-66
2022/10/04 10:33:20;;;;;;;26.52;4.95;;;16.60;99.90;;;;;;5013563;28;20034;-66
2022/10/04 10:36:15;;;;;;;19.48;4.53;;;16.50;99.90;;;;;;5013948;28;20072;-66
2022/10/04 10:38:58;;;;;;;23.38;5.38;;;16.40;99.90;;;;;;5013737;28;20033;-66
2022/10/04 10:41:54;;;;;;;24.63;4.57;;;16.50;99.90;;;;;;5013787;28;20033;-66
2022/10/04 10:44:29;;;;;;;21.50;4.75;;;16.70;99.90;;;;;;5013100;28;20105;-67
2022/10/04 10:47:05;;;;;;;15.75;3.97;;;17.10;99.90;;;;;;5013824;28;20026;-67
2022/10/04 10:49:46;;;;;;;21.02;5.05;;;17.20;99.90;;;;;;5016923;28;20033;-67
2022/10/04 10:52:31;;;;;;;23.23;4.65;;;17.20;99.90;;;;;;5018184;28;20493;-66
2022/10/04 10:55:06;;;;;;;22.95;5.22;;;17.10;99.90;;;;;;5017262;28;20021;-68
2022/10/04 10:58:05;;;;;;;22.63;4.15;;;16.90;99.90;;;;;;5018096;28;20101;-68
2022/10/04 11:01:00;;;;;;;20.40;4.45;;;16.70;99.90;;;;;;5017568;28;20041;-68
2022/10/04 11:03:53;;;;;;;21.35;3.67;;;16.70;99.90;;;;;;5016928;28;20049;-68
2022/10/04 11:06:40;;;;;;;18.52;4.20;;;16.60;99.90;;;;;;5017746;28;20053;-68
2022/10/04 11:09:30;;;;;;;18.88;3.58;;;16.40;99.90;;;;;;5017345;28;20049;-68
2022/10/04 11:12:04;;;;;;;17.23;3.42;;;16.20;99.90;;;;;;5016893;28;20037;-68
2022/10/04 11:14:58;;;;;;;13.48;3.30;;;16.30;99.90;;;;;;5017210;28;20028;-68
2022/10/04 11:18:01;;;;;;;12.57;3.42;;;16.80;99.90;;;;;;5017473;28;20076;-68
2022/10/04 11:20:35;;;;;;;14.15;3.15;;;17.10;99.90;;;;;;5017124;28;20053;-68
2022/10/04 11:23:28;;;;;;;11.30;2.67;;;17.00;99.90;;;;;;5017210;28;20054;-68
2022/10/04 11:26:15;;;;;;;22.30;4.28;;;16.70;99.90;;;;;;5016702;28;20022;-67
2022/10/04 11:29:19;;;;;;;20.25;4.43;;;16.50;99.90;;;;;;5017010;28;20028;-67
2022/10/04 11:31:59;;;;;;;28.08;4.55;;;16.50;99.90;;;;;;5017188;28;20025;-67
2022/10/04 11:35:15;;;;;;;17.10;4.40;;;16.90;99.90;;;;;;5016805;28;20056;-67
2022/10/04 11:38:08;;;;;;;23.95;3.72;;;17.30;99.90;;;;;;5007836;28;20042;-67
2022/10/04 11:40:51;;;;;;;20.08;3.95;;;17.70;99.90;;;;;;5016819;28;20075;-67
2022/10/04 11:43:51;;;;;;;23.52;3.83;;;18.30;99.90;;;;;;5016186;28;20018;-67
2022/10/04 11:46:53;;;;;;;19.10;3.65;;;18.70;99.90;;;;;;5016927;28;20026;-67
2022/10/04 11:49:34;;;;;;;13.43;3.88;;;18.70;99.90;;;;;;5015409;28;20513;-67
2022/10/04 11:52:30;;;;;;;17.10;3.42;;;18.30;99.90;;;;;;5017098;28;20081;-67
2022/10/04 11:55:45;;;;;;;12.20;3.63;;;17.90;99.90;;;;;;5015993;28;20034;-67
2022/10/04 11:58:31;;;;;;;17.75;4.53;;;17.30;99.90;;;;;;5016636;28;20053;-66
2022/10/04 12:01:21;;;;;;;12.82;3.38;;;17.30;99.90;;;;;;5015379;28;20119;-67
2022/10/04 12:04:21;;;;;;;20.13;3.50;;;17.30;99.90;;;;;;5016582;28;20470;-67
2022/10/04 12:07:22;;;;;;;10.63;3.78;;;17.50;99.90;;;;;;5016359;28;20056;-66
2022/10/04 12:10:04;;;;;;;13.88;3.95;;;17.30;99.90;;;;;;5016106;28;20455;-67
2022/10/04 12:12:51;;;;;;;14.00;3.55;;;17.50;99.90;;;;;;5016452;28;20108;-67
2022/10/04 12:15:44;;;;;;;15.40;4.60;;;18.00;99.90;;;;;;5015725;28;20073;-67
2022/10/04 12:18:26;;;;;;;22.10;5.00;;;18.30;99.90;;;;;;5015959;28;20485;-67
2022/10/04 12:21:07;;;;;;;17.63;4.35;;;18.60;99.90;;;;;;5015609;28;20057;-66
2022/10/04 12:24:06;;;;;;;16.80;3.70;;;18.70;99.90;;;;;;5015873;28;20097;-67
2022/10/04 12:26:54;;;;;;;23.58;3.28;;;19.10;99.90;;;;;;5015968;28;20033;-68
2022/10/04 12:29:31;;;;;;;15.38;3.42;;;18.80;99.90;;;;;;5015153;28;20447;-68
2022/10/04 12:32:17;;;;;;;14.70;3.67;;;18.70;99.90;;;;;;5015747;28;20029;-68
2022/10/04 12:35:07;;;;;;;15.18;4.28;;;18.90;99.90;;;;;;5015788;28;20026;-68
2022/10/04 12:38:07;;;;;;;21.02;4.20;;;19.70;99.90;;;;;;5016151;28;20029;-68
2022/10/04 12:40:53;;;;;;;21.65;4.68;;;20.10;99.90;;;;;;5015473;28;20044;-68
2022/10/04 12:43:33;;;;;;;17.48;4.38;;;19.80;99.90;;;;;;5014971;28;20022;-68
2022/10/04 12:46:10;;;;;;;12.90;3.58;;;19.80;99.90;;;;;;5015514;28;20083;-68
2022/10/04 12:48:47;;;;;;;20.98;3.15;;;19.80;99.90;;;;;;5015529;28;20022;-68
2022/10/04 12:51:35;;;;;;;21.98;3.83;;;19.50;99.90;;;;;;5015346;28;20474;-68
2022/10/04 12:54:22;;;;;;;14.32;3.22;;;19.90;99.90;;;;;;5014979;28;20061;-68
2022/10/04 12:57:10;;;;;;;27.25;3.40;;;19.50;99.90;;;;;;5015431;28;20512;-68
2022/10/04 13:00:07;;;;;;;29.10;4.75;;;19.40;99.90;;;;;;5015468;28;20034;-68
2022/10/04 13:02:47;;;;;;;13.65;3.60;;;19.70;99.90;;;;;;5014809;28;20132;-68
2022/10/04 13:05:21;;;;;;;16.98;4.75;;;19.40;99.90;;;;;;5015741;28;20101;-68
2022/10/04 13:08:06;;;;;;;9.13;3.00;;;19.40;99.90;;;;;;5015056;28;20026;-68
2022/10/04 13:11:10;;;;;;;11.27;3.08;;;19.50;99.90;;;;;;5014634;28;20071;-68
2022/10/04 13:14:17;;;;;;;8.35;3.15;;;19.70;99.90;;;;;;5014967;28;20030;-68
2022/10/04 13:16:55;;;;;;;20.20;3.40;;;19.60;99.90;;;;;;4993764;28;20033;-68
2022/10/04 13:19:49;;;;;;;15.40;3.08;;;19.80;99.90;;;;;;5013279;28;20092;-68
2022/10/04 13:22:46;;;;;;;13.48;2.95;;;20.00;99.90;;;;;;5015047;28;20026;-68
2022/10/04 13:25:50;;;;;;;17.90;3.25;;;20.10;99.90;;;;;;5014930;28;20057;-68
2022/10/04 13:28:22;;;;;;;;;;;20.70;99.90;;;;;;5014763;28;20385;-68
2022/10/04 13:31:22;;;;;;;12.48;2.80;;;20.10;99.90;;;;;;5014943;28;19988;-68
2022/10/04 13:33:59;;;;;;;22.08;4.30;;;19.60;99.90;;;;;;5014684;28;20064;-68
2022/10/04 13:36:29;;;;;;;11.80;2.85;;;19.50;99.90;;;;;;5014227;28;20112;-68
2022/10/04 13:39:20;;;;;;;12.05;3.53;;;19.80;99.90;;;;;;5014617;28;20026;-68
2022/10/04 13:42:03;;;;;;;15.73;4.03;;;19.90;99.90;;;;;;5014739;28;20387;-68
2022/10/04 13:44:46;;;;;;;14.05;3.58;;;20.10;99.90;;;;;;5014741;28;20373;-68
2022/10/04 13:47:29;;;;;;;15.27;3.30;;;20.20;99.90;;;;;;5014381;28;20553;-68
2022/10/04 13:49:57;;;;;;;9.05;2.80;;;20.70;99.90;;;;;;5014799;28;20540;-68
2022/10/04 13:58:31;;;;;;;16.88;3.30;;;20.60;99.90;;;;;;5013546;28;20029;-68
2022/10/04 14:01:24;;;;;;;12.20;3.33;;;20.70;99.90;;;;;;5014300;28;20076;-68
2022/10/04 14:03:58;;;;;;;19.55;3.70;;;20.60;99.90;;;;;;5014297;28;20374;-68